CYUL/YUL METAR and TAF weather

Enter ICAO airport designator
Station Type Date Time Source
CYUL METAR 2019/02/23 02:00 UTC NOAA

CYUL 230200Z 25006KT 15SM FEW240 M06/M11 A3046 RMK CI1 SLP319


Station Type Date Time Source
CYUL Decoded METAR 2019/02/23 02:00 UTC NOAA

Montreal / Pierre Elliot Trudeau International Airport, Que, Canada (CYUL) 45-28N 073-45W 36M
Feb 22, 2019 - 09:00 PM EST / 2019.02.23 0200 UTC
Wind: from the WSW (250 degrees) at 7 MPH (6 KT):0
Visibility: 15 mile(s):0
Sky conditions: mostly clear
Temperature: 21 F (-6 C)
Windchill: 12 F (-11 C):1
Dew Point: 12 F (-11 C)
Relative Humidity: 67%
Pressure (altimeter): 30.46 in. Hg (1031 hPa)
ob: CYUL 230200Z 25006KT 15SM FEW240 M06/M11 A3046 RMK CI1 SLP319
cycle: 2

Station Type Date Time Source
CYUL TAF 2019/02/23 03:42 UTC NOAA

TAF CYUL 230238Z 2303/2324 25006KT P6SM FEW240
FM231000 20005KT P6SM SCT030
TEMPO 2310/2317 BKN030
FM231700 12005KT P6SM FEW030 SCT140
FM232300 04007KT P6SM OVC140
RMK NXT FCST BY 230600Z


Example: see airport list